ADDS METAR Data INFO
IDs: Format: Raw Decoded Include TAF

Data at: 0922 UTC 13 Dec 2017

KPWK 130852Z AUTO 17008KT 10SM BKN032 OVC039 M05/M11 A2982 RMK AO2 SLP108 T10501111 56029
KPWK 130752Z AUTO 18008KT 10SM OVC030 M06/M12 A2985 RMK AO2 SLP116 T10561117
KPWK 130652Z AUTO 19005KT 10SM OVC036 M06/M13 A2989 RMK AO2 SLP130 T10561128
KPWK 130552Z AUTO 19006KT 10SM OVC050 M06/M13 A2991 RMK AO2 PRESFR SLP138 T10561128 11056 21078 410061083 58028
KPWK 130452Z AUTO 23005KT 10SM FEW046 OVC060 M06/M13 A2994 RMK AO2 SLP150 T10611128
KPWK 130352Z 26004KT 10SM FEW050 OVC070 M07/M13 A2998 RMK AO2 SLP163 T10671128
KPWK 130252Z 27005KT 10SM OVC080 M07/M13 A3000 RMK AO2 SLP168 T10721128 58010
KPWK 130152Z 00000KT 10SM BKN085 M08/M13 A3001 RMK AO2 SLP173 T10781133
KPWK 130052Z 27005KT 10SM CLR M07/M13 A3003 RMK AO2 SLP179 T10721133
KPWK 122352Z 26004KT 10SM CLR M07/M13 A3003 RMK AO2 SLP179 T10721128 11050 21072 58004
KPWK 122252Z 28007KT 10SM CLR M06/M14 A3003 RMK AO2 SLP179 T10611139
KPWK 122152Z 27009KT 10SM CLR M06/M14 A3004 RMK AO2 SLP181 T10561139
KPWK 122052Z 29013G17KT 10SM FEW036 M05/M14 A3004 RMK AO2 SLP181 T10501139 56013
KPWK 121952Z 32010KT 10SM FEW036 M05/M13 A3005 RMK AO2 SLP184 T10501128
KPWK 121852Z 33013KT 10SM CLR M06/M14 A3006 RMK AO2 SLP190 T10561139
KPWK 121752Z 31009KT 10SM CLR M06/M14 A3008 RMK AO2 SLP194 T10611139 11061 21083 58006
KPWK 121652Z 32011KT 10SM FEW034 M07/M14 A3011 RMK AO2 SLP203 T10671144
KPWK 121552Z 33015G19KT 10SM CLR M07/M14 A3011 RMK AO2 SLP206 T10721139
KPWK 121452Z 32015KT 10SM CLR M08/M14 A3010 RMK AO2 SLP200 T10781144 51011
KPWK 121352Z 32012KT 10SM CLR M08/M14 A3008 RMK AO2 SLP196 T10831139
KPWK 121252Z 32010KT 10SM CLR M08/M13 A3008 RMK AO2 SLP195 T10781133
KPWK 121152Z AUTO 32013KT 10SM BKN040 M08/M13 A3006 RMK AO2 SLP189 T10781133 11006 21078 51018
KPWK 121052Z AUTO 31011KT 10SM FEW038 M07/M13 A3004 RMK AO2 SLP182 T10671128
KPWK 120952Z AUTO 33012G19KT 10SM CLR M06/M11 A3003 RMK AO2 PK WND 33027/0902 SLP176 T10611111
KPWK 120852Z AUTO 33014KT 10SM BKN043 M05/M11 A3001 RMK AO2 SLP169 T10501106 51031
KPWK 120752Z AUTO 33011G23KT 10SM BKN045 M04/M12 A2999 RMK AO2 PK WND 32029/0703 SLP164 T10441122
KPWK 120652Z AUTO 34018G24KT 10SM FEW032 BKN045 M03/M11 A2996 RMK AO2 PK WND 32032/0602 SLP154 T10331106
KPWK 120552Z AUTO 33013G23KT 10SM OVC037 M01/M06 A2992 RMK AO2 SLP137 T10061061 10006 21006 400331067 51022
KPWK 120452Z AUTO 33011KT 10SM SCT027 OVC035 00/M04 A2989 RMK AO2 PK WND 36027/0400 SLP129 T00001044
KPWK 120352Z AUTO 34014G23KT 9SM OVC018 00/M03 A2988 RMK AO2 PK WND 32029/0338 SLP125 T00001033
KPWK 120252Z 33012G18KT 9SM OVC019 01/M02 A2985 RMK AO2 SLP114 T00061022 53026
KPWK 120209Z 33012KT 8SM SCT018 BKN025 OVC048 01/M02 A2982 RMK AO2 T00061017
KPWK 120152Z 33010KT 8SM FEW016 BKN039 OVC060 01/M02 A2981 RMK AO2 SLP100 T00061017
KPWK 120052Z 32009KT 6SM BR BKN050 OVC070 01/M01 A2978 RMK AO2 SLP093 T00061006
KPWK 120003Z 31007KT 5SM BR FEW005 SCT009 OVC050 01/00 A2977 RMK AO2 T00060000
KPWK 112352Z 32008KT 3SM BR BKN005 BKN009 OVC026 01/00 A2977 RMK AO2 SNE52 SLP089 P0000 60000 T00060000 10033 20006 51028
KPWK 112347Z 31005KT 2SM -SN BR BKN005 BKN009 OVC026 01/00 A2977 RMK AO2 P0000
KPWK 112330Z 30003KT 1SM -SN BR OVC007 01/00 A2976 RMK AO2 P0000 T00060000
KPWK 112311Z 32004KT 1/2SM SN FG VV008 01/00 A2976 RMK AO2 P0000 T00060000
KPWK 112259Z 33005KT 1/2SM SN FG BKN011 OVC018 01/M01 A2975 RMK AO2 P0000 T00061006
KPWK 112252Z 33006KT 1SM -SN BR BKN015 OVC020 01/M01 A2975 RMK AO2 SNB03 SLP080 P0000 T00061011
KPWK 112245Z 33005KT 1 1/2SM -SN BKN020 OVC036 01/M02 A2974 RMK AO2 SNB03 P0000 T00111017
KPWK 112208Z 35005KT 5SM -SN OVC028 02/M03 A2973 RMK AO2 SNB03 P0000 T00171028
KPWK 112152Z 35005KT 7SM BKN030 OVC060 02/M03 A2972 RMK AO2 SNB42E51 SLP072 P0000 T00221028